sensor_id;sensor_type;location;lat;lon;timestamp;pressure;altitude;pressure_sealevel;temperature;humidity
51249;BME280;39642;47.556;18.728;2023-01-30T00:01:32;100109.66;;;21.97;23.50
51249;BME280;39642;47.556;18.728;2023-01-30T00:03:58;100109.56;;;21.98;23.47
51249;BME280;39642;47.556;18.728;2023-01-30T00:06:24;100111.37;;;21.98;23.98
51249;BME280;39642;47.556;18.728;2023-01-30T00:08:51;100109.56;;;21.98;24.01
51249;BME280;39642;47.556;18.728;2023-01-30T00:11:18;100113.91;;;21.99;24.92
51249;BME280;39642;47.556;18.728;2023-01-30T00:13:45;100110.41;;;21.99;25.19
51249;BME280;39642;47.556;18.728;2023-01-30T00:16:12;100115.72;;;21.99;25.36
51249;BME280;39642;47.556;18.728;2023-01-30T00:18:39;100110.41;;;21.99;25.44
51249;BME280;39642;47.556;18.728;2023-01-30T00:21:07;100116.56;;;21.99;25.37
51249;BME280;39642;47.556;18.728;2023-01-30T00:23:35;100114.03;;;21.98;25.30
51249;BME280;39642;47.556;18.728;2023-01-30T00:26:01;100107.00;;;21.97;25.46
51249;BME280;39642;47.556;18.728;2023-01-30T00:28:27;100102.66;;;21.96;25.59
51249;BME280;39642;47.556;18.728;2023-01-30T00:30:54;100110.63;;;21.96;25.51
51249;BME280;39642;47.556;18.728;2023-01-30T00:33:21;100102.75;;;21.94;25.52
51249;BME280;39642;47.556;18.728;2023-01-30T00:35:49;100109.00;;;21.93;25.38
51249;BME280;39642;47.556;18.728;2023-01-30T00:38:15;100109.00;;;21.93;25.49
51249;BME280;39642;47.556;18.728;2023-01-30T00:40:42;100107.38;;;21.91;25.50
51249;BME280;39642;47.556;18.728;2023-01-30T00:43:11;100101.97;;;21.92;25.43
51249;BME280;39642;47.556;18.728;2023-01-30T00:45:55;100107.38;;;21.91;25.40
51249;BME280;39642;47.556;18.728;2023-01-30T00:48:40;100096.88;;;21.89;25.72
51249;BME280;39642;47.556;18.728;2023-01-30T00:51:06;100096.03;;;21.89;25.48
51249;BME280;39642;47.556;18.728;2023-01-30T00:53:32;100092.50;;;21.88;25.76
51249;BME280;39642;47.556;18.728;2023-01-30T00:55:58;100094.31;;;21.88;25.75
51249;BME280;39642;47.556;18.728;2023-01-30T00:58:24;100084.66;;;21.87;25.62
51249;BME280;39642;47.556;18.728;2023-01-30T01:00:51;100089.97;;;21.87;25.41
51249;BME280;39642;47.556;18.728;2023-01-30T01:03:17;100083.78;;;21.86;25.45
51249;BME280;39642;47.556;18.728;2023-01-30T01:05:43;100089.09;;;21.86;25.33
51249;BME280;39642;47.556;18.728;2023-01-30T01:08:10;100076.69;;;21.87;25.30
51249;BME280;39642;47.556;18.728;2023-01-30T01:10:36;100076.69;;;21.87;25.19
51249;BME280;39642;47.556;18.728;2023-01-30T01:13:03;100074.91;;;21.87;25.02
51249;BME280;39642;47.556;18.728;2023-01-30T01:15:31;100081.88;;;21.88;24.82
51249;BME280;39642;47.556;18.728;2023-01-30T01:17:57;100075.66;;;21.89;24.23
51249;BME280;39642;47.556;18.728;2023-01-30T01:20:24;100080.00;;;21.90;23.47
51249;BME280;39642;47.556;18.728;2023-01-30T01:22:54;100075.56;;;21.91;23.51
51249;BME280;39642;47.556;18.728;2023-01-30T01:25:21;100071.00;;;21.93;23.30
51249;BME280;39642;47.556;18.728;2023-01-30T01:27:47;100066.59;;;21.93;23.23
51249;BME280;39642;47.556;18.728;2023-01-30T01:30:13;100060.25;;;21.96;23.46
51249;BME280;39642;47.556;18.728;2023-01-30T01:32:39;100056.63;;;21.97;23.12
51249;BME280;39642;47.556;18.728;2023-01-30T01:35:05;100059.19;;;21.98;23.56
51249;BME280;39642;47.556;18.728;2023-01-30T01:37:31;100053.91;;;21.98;23.27
51249;BME280;39642;47.556;18.728;2023-01-30T01:39:57;100052.94;;;21.99;23.38
51249;BME280;39642;47.556;18.728;2023-01-30T01:42:42;100047.63;;;21.99;23.72
51249;BME280;39642;47.556;18.728;2023-01-30T01:47:38;100021.13;;;21.99;23.65
51249;BME280;39642;47.556;18.728;2023-01-30T01:50:10;100023.78;;;21.99;24.32
51249;BME280;39642;47.556;18.728;2023-01-30T01:52:39;100024.66;;;22.00;24.86
51249;BME280;39642;47.556;18.728;2023-01-30T01:55:06;100011.38;;;22.00;25.07
51249;BME280;39642;47.556;18.728;2023-01-30T01:57:36;100014.13;;;21.98;25.14
51249;BME280;39642;47.556;18.728;2023-01-30T02:00:09;100011.47;;;21.98;25.12
51249;BME280;39642;47.556;18.728;2023-01-30T02:02:37;100004.44;;;21.97;25.15
51249;BME280;39642;47.556;18.728;2023-01-30T02:05:04;99999.16;;;21.97;25.26
51249;BME280;39642;47.556;18.728;2023-01-30T02:10:25;99987.81;;;21.95;24.84
51249;BME280;39642;47.556;18.728;2023-01-30T02:12:52;99980.78;;;21.94;25.21
51249;BME280;39642;47.556;18.728;2023-01-30T02:15:18;99987.06;;;21.93;25.38
51249;BME280;39642;47.556;18.728;2023-01-30T02:17:44;99971.22;;;21.92;25.29
51249;BME280;39642;47.556;18.728;2023-01-30T02:20:33;99975.69;;;21.91;25.37
51249;BME280;39642;47.556;18.728;2023-01-30T02:28:47;99976.72;;;21.89;25.32
51249;BME280;39642;47.556;18.728;2023-01-30T02:34:19;99968.84;;;21.87;25.32
51249;BME280;39642;47.556;18.728;2023-01-30T02:39:54;99956.53;;;21.86;25.23
51249;BME280;39642;47.556;18.728;2023-01-30T02:42:37;99943.28;;;21.86;25.11
51249;BME280;39642;47.556;18.728;2023-01-30T02:45:29;99945.94;;;21.86;25.01
51249;BME280;39642;47.556;18.728;2023-01-30T02:50:28;99938.84;;;21.87;24.51
51249;BME280;39642;47.556;18.728;2023-01-30T02:52:57;99940.53;;;21.88;23.81
51249;BME280;39642;47.556;18.728;2023-01-30T02:55:26;99934.31;;;21.89;24.01
51249;BME280;39642;47.556;18.728;2023-01-30T02:57:53;99932.50;;;21.89;23.25
51249;BME280;39642;47.556;18.728;2023-01-30T03:04:06;99921.69;;;21.92;23.00
51249;BME280;39642;47.556;18.728;2023-01-30T03:09:19;99913.56;;;21.95;22.59
51249;BME280;39642;47.556;18.728;2023-01-30T03:12:10;99912.63;;;21.96;22.80
51249;BME280;39642;47.556;18.728;2023-01-30T03:14:47;99906.34;;;21.97;22.77
51249;BME280;39642;47.556;18.728;2023-01-30T03:17:17;99904.47;;;21.99;23.50
51249;BME280;39642;47.556;18.728;2023-01-30T03:19:45;99907.09;;;21.99;22.79
51249;BME280;39642;47.556;18.728;2023-01-30T03:22:11;99899.16;;;21.99;23.30
51249;BME280;39642;47.556;18.728;2023-01-30T03:24:37;99906.19;;;22.00;23.32
51249;BME280;39642;47.556;18.728;2023-01-30T03:27:07;99906.19;;;22.00;23.87
51249;BME280;39642;47.556;18.728;2023-01-30T03:29:35;99904.47;;;21.99;23.87
51249;BME280;39642;47.556;18.728;2023-01-30T03:32:01;99902.69;;;22.00;24.01
51249;BME280;39642;47.556;18.728;2023-01-30T03:34:27;99893.00;;;21.99;24.00
51249;BME280;39642;47.556;18.728;2023-01-30T03:36:53;99893.84;;;21.99;24.57
51249;BME280;39642;47.556;18.728;2023-01-30T03:39:19;99895.66;;;21.99;24.69
51249;BME280;39642;47.556;18.728;2023-01-30T03:41:45;99893.97;;;21.98;24.84
51249;BME280;39642;47.556;18.728;2023-01-30T03:44:11;99897.56;;;21.97;24.75
51249;BME280;39642;47.556;18.728;2023-01-30T03:46:37;99894.91;;;21.97;24.86
51249;BME280;39642;47.556;18.728;2023-01-30T03:49:03;99895.03;;;21.95;24.86
51249;BME280;39642;47.556;18.728;2023-01-30T03:51:29;99894.13;;;21.95;24.95
51249;BME280;39642;47.556;18.728;2023-01-30T03:53:54;99888.06;;;21.93;24.89
51249;BME280;39642;47.556;18.728;2023-01-30T03:56:20;99877.47;;;21.93;25.09
51249;BME280;39642;47.556;18.728;2023-01-30T03:58:46;99872.28;;;21.91;24.99
51249;BME280;39642;47.556;18.728;2023-01-30T04:01:12;99874.06;;;21.91;24.80
51249;BME280;39642;47.556;18.728;2023-01-30T04:03:38;99879.37;;;21.91;25.23
51249;BME280;39642;47.556;18.728;2023-01-30T04:06:04;99876.84;;;21.89;24.89
51249;BME280;39642;47.556;18.728;2023-01-30T04:08:30;99879.50;;;21.89;25.05
51249;BME280;39642;47.556;18.728;2023-01-30T04:10:55;99880.41;;;21.88;25.09
51249;BME280;39642;47.556;18.728;2023-01-30T04:13:21;99868.97;;;21.88;25.04
51249;BME280;39642;47.556;18.728;2023-01-30T04:15:47;99866.31;;;21.88;24.90
51249;BME280;39642;47.556;18.728;2023-01-30T04:18:13;99876.06;;;21.87;24.81
51249;BME280;39642;47.556;18.728;2023-01-30T04:20:39;99877.00;;;21.86;24.97
51249;BME280;39642;47.556;18.728;2023-01-30T04:23:05;99870.87;;;21.86;24.96
51249;BME280;39642;47.556;18.728;2023-01-30T04:25:31;99861.97;;;21.87;24.68
51249;BME280;39642;47.556;18.728;2023-01-30T04:27:57;99858.44;;;21.86;25.05
51249;BME280;39642;47.556;18.728;2023-01-30T04:30:23;99857.53;;;21.87;24.17
51249;BME280;39642;47.556;18.728;2023-01-30T04:32:48;99855.81;;;21.86;22.70
51249;BME280;39642;47.556;18.728;2023-01-30T04:35:14;99855.72;;;21.88;23.12
51249;BME280;39642;47.556;18.728;2023-01-30T04:37:40;99845.03;;;21.89;22.44
51249;BME280;39642;47.556;18.728;2023-01-30T04:40:06;99836.22;;;21.89;22.26
51249;BME280;39642;47.556;18.728;2023-01-30T04:42:33;99835.25;;;21.90;22.96
51249;BME280;39642;47.556;18.728;2023-01-30T04:44:58;99835.25;;;21.90;22.72
51249;BME280;39642;47.556;18.728;2023-01-30T04:47:24;99833.47;;;21.90;22.33
51249;BME280;39642;47.556;18.728;2023-01-30T04:49:50;99838.66;;;21.92;22.61
51249;BME280;39642;47.556;18.728;2023-01-30T04:52:16;99833.37;;;21.92;22.81
51249;BME280;39642;47.556;18.728;2023-01-30T04:54:42;99837.84;;;21.91;22.60
51249;BME280;39642;47.556;18.728;2023-01-30T04:57:08;99834.22;;;21.92;22.61
51249;BME280;39642;47.556;18.728;2023-01-30T04:59:34;99831.56;;;21.92;22.69
51249;BME280;39642;47.556;18.728;2023-01-30T05:02:00;99836.88;;;21.92;22.13
51249;BME280;39642;47.556;18.728;2023-01-30T05:04:25;99832.41;;;21.93;22.29
51249;BME280;39642;47.556;18.728;2023-01-30T05:06:51;99825.34;;;21.93;22.00
51249;BME280;39642;47.556;18.728;2023-01-30T05:09:17;99825.34;;;21.93;22.02
51249;BME280;39642;47.556;18.728;2023-01-30T05:11:43;99824.38;;;21.94;21.94
51249;BME280;39642;47.556;18.728;2023-01-30T05:14:09;99817.25;;;21.95;21.95
51249;BME280;39642;47.556;18.728;2023-01-30T05:16:35;99821.62;;;21.96;22.84
51249;BME280;39642;47.556;18.728;2023-01-30T05:19:01;99817.16;;;21.96;21.95
51249;BME280;39642;47.556;18.728;2023-01-30T05:21:27;99814.50;;;21.96;22.58
51249;BME280;39642;47.556;18.728;2023-01-30T05:23:56;99810.91;;;21.97;22.14
51249;BME280;39642;47.556;18.728;2023-01-30T05:26:23;99810.91;;;21.97;22.18
51249;BME280;39642;47.556;18.728;2023-01-30T05:28:56;99813.56;;;21.97;21.89
51249;BME280;39642;47.556;18.728;2023-01-30T05:31:22;99817.91;;;21.98;22.16
51249;BME280;39642;47.556;18.728;2023-01-30T05:33:50;99818.78;;;21.99;21.84
51249;BME280;39642;47.556;18.728;2023-01-30T05:36:19;99814.31;;;21.99;22.30
51249;BME280;39642;47.556;18.728;2023-01-30T05:38:45;99809.00;;;21.99;22.13
51249;BME280;39642;47.556;18.728;2023-01-30T05:41:12;99809.87;;;22.00;21.86
51249;BME280;39642;47.556;18.728;2023-01-30T05:43:38;99809.75;;;22.01;22.37
51249;BME280;39642;47.556;18.728;2023-01-30T05:46:05;99810.59;;;22.02;21.94
51249;BME280;39642;47.556;18.728;2023-01-30T05:48:32;99816.78;;;22.02;22.23
51249;BME280;39642;47.556;18.728;2023-01-30T05:50:58;99810.59;;;22.02;24.19
51249;BME280;39642;47.556;18.728;2023-01-30T05:53:31;99818.37;;;22.05;25.44
51249;BME280;39642;47.556;18.728;2023-01-30T05:56:03;99812.22;;;22.04;22.96
51249;BME280;39642;47.556;18.728;2023-01-30T05:58:31;99817.63;;;22.03;22.84
51249;BME280;39642;47.556;18.728;2023-01-30T06:01:05;99814.97;;;22.03;22.85
51249;BME280;39642;47.556;18.728;2023-01-30T06:03:33;99813.16;;;22.03;24.48
51249;BME280;39642;47.556;18.728;2023-01-30T06:06:00;99810.50;;;22.03;23.42
51249;BME280;39642;47.556;18.728;2023-01-30T06:08:26;99809.59;;;22.04;24.96
51249;BME280;39642;47.556;18.728;2023-01-30T06:10:52;99803.31;;;22.06;24.10
51249;BME280;39642;47.556;18.728;2023-01-30T06:13:18;99807.69;;;22.07;25.24
51249;BME280;39642;47.556;18.728;2023-01-30T06:15:44;99809.47;;;22.06;24.32
51249;BME280;39642;47.556;18.728;2023-01-30T06:18:10;99812.03;;;22.08;24.32
51249;BME280;39642;47.556;18.728;2023-01-30T06:20:35;99811.19;;;22.07;24.38
51249;BME280;39642;47.556;18.728;2023-01-30T06:23:01;99814.69;;;22.08;25.47
51249;BME280;39642;47.556;18.728;2023-01-30T06:25:27;99812.88;;;22.08;25.59
51249;BME280;39642;47.556;18.728;2023-01-30T06:27:53;99805.75;;;22.09;25.68
51249;BME280;39642;47.556;18.728;2023-01-30T06:30:19;99809.28;;;22.09;25.89
51249;BME280;39642;47.556;18.728;2023-01-30T06:32:49;99808.31;;;22.10;26.81
51249;BME280;39642;47.556;18.728;2023-01-30T06:35:15;99806.50;;;22.11;26.15
51249;BME280;39642;47.556;18.728;2023-01-30T06:37:43;99801.41;;;22.08;26.83
51249;BME280;39642;47.556;18.728;2023-01-30T06:40:09;99791.03;;;22.04;26.91
51249;BME280;39642;47.556;18.728;2023-01-30T06:42:35;99790.16;;;22.04;26.53
51249;BME280;39642;47.556;18.728;2023-01-30T06:45:01;99804.47;;;22.01;26.24
51249;BME280;39642;47.556;18.728;2023-01-30T06:47:27;99794.81;;;22.00;27.05
51249;BME280;39642;47.556;18.728;2023-01-30T06:49:53;99794.81;;;22.00;26.57
51249;BME280;39642;47.556;18.728;2023-01-30T06:52:19;99793.09;;;21.99;26.14
51249;BME280;39642;47.556;18.728;2023-01-30T06:54:45;99782.69;;;21.96;26.50
51249;BME280;39642;47.556;18.728;2023-01-30T06:57:11;99790.75;;;21.95;26.23
51249;BME280;39642;47.556;18.728;2023-01-30T06:59:37;99788.22;;;21.93;25.99
51249;BME280;39642;47.556;18.728;2023-01-30T07:02:03;99790.88;;;21.93;25.73
51249;BME280;39642;47.556;18.728;2023-01-30T07:04:29;99796.16;;;21.93;25.21
51249;BME280;39642;47.556;18.728;2023-01-30T07:06:54;99799.66;;;21.94;25.44
51249;BME280;39642;47.556;18.728;2023-01-30T07:09:21;99790.75;;;21.95;25.29
51249;BME280;39642;47.556;18.728;2023-01-30T07:11:47;99796.91;;;21.95;23.84
51249;BME280;39642;47.556;18.728;2023-01-30T07:14:14;99797.78;;;21.96;23.39
51249;BME280;39642;47.556;18.728;2023-01-30T07:16:40;99802.84;;;21.99;23.22
51249;BME280;39642;47.556;18.728;2023-01-30T07:19:06;99786.94;;;21.99;23.48
51249;BME280;39642;47.556;18.728;2023-01-30T07:21:33;99789.50;;;22.00;24.49
51249;BME280;39642;47.556;18.728;2023-01-30T07:23:59;99783.25;;;22.01;23.82
51249;BME280;39642;47.556;18.728;2023-01-30T07:26:24;99782.31;;;22.02;23.56
51249;BME280;39642;47.556;18.728;2023-01-30T07:28:50;99782.31;;;22.02;23.33
51249;BME280;39642;47.556;18.728;2023-01-30T07:31:16;99793.66;;;22.04;23.35
51249;BME280;39642;47.556;18.728;2023-01-30T07:33:42;99788.25;;;22.06;24.25
51249;BME280;39642;47.556;18.728;2023-01-30T07:36:08;99785.59;;;22.06;23.32
51249;BME280;39642;47.556;18.728;2023-01-30T07:38:34;99785.59;;;22.06;23.19
51249;BME280;39642;47.556;18.728;2023-01-30T07:41:00;99772.25;;;22.08;23.46
51249;BME280;39642;47.556;18.728;2023-01-30T07:43:26;99770.44;;;22.08;23.41
51249;BME280;39642;47.556;18.728;2023-01-30T07:45:51;99772.16;;;22.09;23.90
51249;BME280;39642;47.556;18.728;2023-01-30T07:48:18;99775.75;;;22.08;23.55
51249;BME280;39642;47.556;18.728;2023-01-30T07:50:44;99770.34;;;22.10;23.98
51249;BME280;39642;47.556;18.728;2023-01-30T07:53:13;99766.66;;;22.12;23.89
51249;BME280;39642;47.556;18.728;2023-01-30T07:55:40;99765.81;;;22.12;24.40
51249;BME280;39642;47.556;18.728;2023-01-30T07:58:06;99755.38;;;22.09;24.15
51249;BME280;39642;47.556;18.728;2023-01-30T08:00:33;99757.09;;;22.10;24.28
51249;BME280;39642;47.556;18.728;2023-01-30T08:03:00;99749.03;;;22.11;25.81
51249;BME280;39642;47.556;18.728;2023-01-30T08:05:26;99743.53;;;22.14;24.83
51249;BME280;39642;47.556;18.728;2023-01-30T08:07:54;99733.75;;;22.15;24.48
51249;BME280;39642;47.556;18.728;2023-01-30T08:10:20;99711.63;;;22.16;24.41
51249;BME280;39642;47.556;18.728;2023-01-30T08:12:48;99707.06;;;22.18;24.28
51249;BME280;39642;47.556;18.728;2023-01-30T08:15:14;99700.78;;;22.19;24.21
51249;BME280;39642;47.556;18.728;2023-01-30T08:17:40;99696.31;;;22.19;24.26
51249;BME280;39642;47.556;18.728;2023-01-30T08:20:07;99699.75;;;22.21;24.24
51249;BME280;39642;47.556;18.728;2023-01-30T08:22:33;99711.22;;;22.22;24.28
51249;BME280;39642;47.556;18.728;2023-01-30T08:24:59;99713.88;;;22.22;24.17
51249;BME280;39642;47.556;18.728;2023-01-30T08:27:25;99704.13;;;22.22;24.08
51249;BME280;39642;47.556;18.728;2023-01-30T08:29:51;99704.00;;;22.24;24.07
51249;BME280;39642;47.556;18.728;2023-01-30T08:32:17;99697.75;;;22.25;24.05
51249;BME280;39642;47.556;18.728;2023-01-30T08:34:42;99697.75;;;22.25;24.19
51249;BME280;39642;47.556;18.728;2023-01-30T08:37:08;99692.47;;;22.25;24.19
51249;BME280;39642;47.556;18.728;2023-01-30T08:39:34;99684.59;;;22.23;24.31
51249;BME280;39642;47.556;18.728;2023-01-30T08:42:00;99696.03;;;22.24;24.35
51249;BME280;39642;47.556;18.728;2023-01-30T08:44:26;99683.63;;;22.24;24.45
51249;BME280;39642;47.556;18.728;2023-01-30T08:46:52;99690.75;;;22.24;24.78
51249;BME280;39642;47.556;18.728;2023-01-30T08:49:17;99696.16;;;22.22;24.72
51249;BME280;39642;47.556;18.728;2023-01-30T08:51:43;99700.59;;;22.22;24.97
51249;BME280;39642;47.556;18.728;2023-01-30T08:54:09;99692.75;;;22.20;25.68
51249;BME280;39642;47.556;18.728;2023-01-30T08:56:35;99691.50;;;22.26;25.75
51249;BME280;39642;47.556;18.728;2023-01-30T08:59:01;99700.19;;;22.28;26.08
51249;BME280;39642;47.556;18.728;2023-01-30T09:01:27;99684.28;;;22.28;26.57
51249;BME280;39642;47.556;18.728;2023-01-30T09:03:53;99686.28;;;22.24;26.67
51249;BME280;39642;47.556;18.728;2023-01-30T09:06:19;99694.50;;;22.20;26.83
51249;BME280;39642;47.556;18.728;2023-01-30T09:08:45;99684.22;;;22.15;26.72
51249;BME280;39642;47.556;18.728;2023-01-30T09:11:10;99685.09;;;22.16;26.83
51249;BME280;39642;47.556;18.728;2023-01-30T09:13:37;99677.88;;;22.18;26.92
51249;BME280;39642;47.556;18.728;2023-01-30T09:16:09;99672.47;;;22.19;27.13
51249;BME280;39642;47.556;18.728;2023-01-30T09:18:42;99673.25;;;22.21;27.38
51249;BME280;39642;47.556;18.728;2023-01-30T09:21:10;99664.41;;;22.21;27.73
51249;BME280;39642;47.556;18.728;2023-01-30T09:23:36;99666.13;;;22.22;27.63
51249;BME280;39642;47.556;18.728;2023-01-30T09:26:03;99659.97;;;22.21;28.03
51249;BME280;39642;47.556;18.728;2023-01-30T09:28:30;99659.97;;;22.21;28.91
51249;BME280;39642;47.556;18.728;2023-01-30T09:30:57;99654.69;;;22.21;28.99
51249;BME280;39642;47.556;18.728;2023-01-30T09:33:23;99660.81;;;22.22;28.65
51249;BME280;39642;47.556;18.728;2023-01-30T09:35:49;99659.88;;;22.23;28.32
51249;BME280;39642;47.556;18.728;2023-01-30T09:38:15;99663.47;;;22.22;29.29
51249;BME280;39642;47.556;18.728;2023-01-30T09:49:07;99647.31;;;22.12;28.60
51249;BME280;39642;47.556;18.728;2023-01-30T09:52:02;99637.22;;;22.04;28.61
51249;BME280;39642;47.556;18.728;2023-01-30T09:54:36;99615.69;;;21.96;28.59
51249;BME280;39642;47.556;18.728;2023-01-30T09:57:23;99619.37;;;21.94;28.28
51249;BME280;39642;47.556;18.728;2023-01-30T09:59:57;99622.13;;;21.92;28.36
51249;BME280;39642;47.556;18.728;2023-01-30T10:02:40;99610.69;;;21.92;27.96
51249;BME280;39642;47.556;18.728;2023-01-30T10:05:09;99607.19;;;21.91;28.30
51249;BME280;39642;47.556;18.728;2023-01-30T10:18:43;99569.66;;;22.10;27.72
51249;BME280;39642;47.556;18.728;2023-01-30T10:21:45;99560.56;;;22.14;28.09
51249;BME280;39642;47.556;18.728;2023-01-30T10:27:15;99563.62;;;22.21;28.69
51249;BME280;39642;47.556;18.728;2023-01-30T10:29:49;99552.00;;;22.23;29.00
51249;BME280;39642;47.556;18.728;2023-01-30T10:32:30;99551.00;;;22.24;29.39
51249;BME280;39642;47.556;18.728;2023-01-30T10:35:04;99539.47;;;22.26;28.81
51249;BME280;39642;47.556;18.728;2023-01-30T10:37:45;99542.03;;;22.27;28.72
51249;BME280;39642;47.556;18.728;2023-01-30T10:40:34;99539.38;;;22.27;28.21
51249;BME280;39642;47.556;18.728;2023-01-30T10:43:08;99525.12;;;22.28;28.30
51249;BME280;39642;47.556;18.728;2023-01-30T10:48:26;99496.38;;;22.22;28.11
51249;BME280;39642;47.556;18.728;2023-01-30T10:50:58;99492.97;;;22.20;28.00
51249;BME280;39642;47.556;18.728;2023-01-30T10:53:34;99482.06;;;22.12;27.91
51249;BME280;39642;47.556;18.728;2023-01-30T11:01:24;99460.94;;;22.10;28.00
51249;BME280;39642;47.556;18.728;2023-01-30T11:04:03;99462.84;;;22.08;27.53
51249;BME280;39642;47.556;18.728;2023-01-30T11:06:32;99458.28;;;22.10;27.86
51249;BME280;39642;47.556;18.728;2023-01-30T11:08:59;99443.97;;;22.13;27.24
51249;BME280;39642;47.556;18.728;2023-01-30T11:11:33;99442.50;;;22.09;27.22
51249;BME280;39642;47.556;18.728;2023-01-30T11:14:08;99439.97;;;22.07;27.43
51249;BME280;39642;47.556;18.728;2023-01-30T11:16:49;99426.72;;;22.07;27.03
51249;BME280;39642;47.556;18.728;2023-01-30T11:19:20;99424.91;;;22.08;27.97
51249;BME280;39642;47.556;18.728;2023-01-30T11:21:54;99415.88;;;22.10;27.86
51249;BME280;39642;47.556;18.728;2023-01-30T11:24:39;99409.81;;;22.08;27.06
51249;BME280;39642;47.556;18.728;2023-01-30T11:27:23;99392.09;;;22.09;26.88
51249;BME280;39642;47.556;18.728;2023-01-30T11:30:01;99384.28;;;22.07;26.79
51249;BME280;39642;47.556;18.728;2023-01-30T11:32:28;99391.16;;;22.10;26.65
51249;BME280;39642;47.556;18.728;2023-01-30T11:37:34;99391.41;;;22.07;26.78
51249;BME280;39642;47.556;18.728;2023-01-30T11:42:44;99382.81;;;22.03;27.83
51249;BME280;39642;47.556;18.728;2023-01-30T11:45:11;99378.34;;;22.03;28.11
51249;BME280;39642;47.556;18.728;2023-01-30T11:47:46;99371.97;;;22.06;28.81
51249;BME280;39642;47.556;18.728;2023-01-30T11:50:16;99372.72;;;22.08;28.38
51249;BME280;39642;47.556;18.728;2023-01-30T11:52:44;99370.78;;;22.10;29.52
51249;BME280;39642;47.556;18.728;2023-01-30T11:55:15;99361.91;;;22.11;29.68
51249;BME280;39642;47.556;18.728;2023-01-30T11:57:53;99358.19;;;22.14;29.93
51249;BME280;39642;47.556;18.728;2023-01-30T12:00:35;99368.66;;;22.15;30.98
51249;BME280;39642;47.556;18.728;2023-01-30T12:03:04;99355.06;;;22.20;31.17
51249;BME280;39642;47.556;18.728;2023-01-30T12:05:33;99348.50;;;22.26;30.79
51249;BME280;39642;47.556;18.728;2023-01-30T12:10:49;99329.59;;;22.30;30.42
51249;BME280;39642;47.556;18.728;2023-01-30T12:15:47;99317.81;;;22.34;32.32
51249;BME280;39642;47.556;18.728;2023-01-30T12:18:33;99315.03;;;22.36;31.49
51249;BME280;39642;47.556;18.728;2023-01-30T12:21:31;99299.84;;;22.38;30.83
51249;BME280;39642;47.556;18.728;2023-01-30T12:26:36;99290.13;;;22.38;30.24
51249;BME280;39642;47.556;18.728;2023-01-30T12:29:20;99287.56;;;22.37;30.31
51249;BME280;39642;47.556;18.728;2023-01-30T12:32:10;99283.19;;;22.36;30.58
51249;BME280;39642;47.556;18.728;2023-01-30T12:34:38;99289.81;;;22.30;30.58
51249;BME280;39642;47.556;18.728;2023-01-30T12:39:57;99299.50;;;22.18;31.51
51249;BME280;39642;47.556;18.728;2023-01-30T12:45:20;99291.25;;;22.10;31.44
51249;BME280;39642;47.556;18.728;2023-01-30T12:53:04;99274.34;;;22.00;31.14
51249;BME280;39642;47.556;18.728;2023-01-30T12:55:44;99259.72;;;21.94;30.94
51249;BME280;39642;47.556;18.728;2023-01-30T12:58:39;99246.16;;;21.86;31.07
51249;BME280;39642;47.556;18.728;2023-01-30T13:04:00;99232.03;;;21.61;31.69
51249;BME280;39642;47.556;18.728;2023-01-30T13:11:55;99227.28;;;21.67;30.99
51249;BME280;39642;47.556;18.728;2023-01-30T13:17:06;99246.31;;;21.72;30.66
51249;BME280;39642;47.556;18.728;2023-01-30T13:19:46;99237.31;;;21.74;30.67
51249;BME280;39642;47.556;18.728;2023-01-30T13:22:22;99246.00;;;21.76;30.36
51249;BME280;39642;47.556;18.728;2023-01-30T13:27:45;99229.75;;;21.81;29.82
51249;BME280;39642;47.556;18.728;2023-01-30T13:30:17;99237.72;;;21.81;30.04
51249;BME280;39642;47.556;18.728;2023-01-30T13:32:48;99240.69;;;21.76;29.86
51249;BME280;39642;47.556;18.728;2023-01-30T13:35:19;99238.37;;;21.72;29.90
51249;BME280;39642;47.556;18.728;2023-01-30T13:37:47;99235.00;;;21.70;29.73
51249;BME280;39642;47.556;18.728;2023-01-30T13:40:20;99243.78;;;21.70;29.80
51249;BME280;39642;47.556;18.728;2023-01-30T13:42:57;99232.00;;;21.74;29.86
51249;BME280;39642;47.556;18.728;2023-01-30T13:45:30;99226.50;;;21.77;30.13
51249;BME280;39642;47.556;18.728;2023-01-30T14:12:44;99215.00;;;22.14;33.06
51249;BME280;39642;47.556;18.728;2023-01-30T14:17:37;99205.12;;;22.16;33.68
51249;BME280;39642;47.556;18.728;2023-01-30T14:20:19;99203.41;;;22.15;33.99
51249;BME280;39642;47.556;18.728;2023-01-30T14:22:55;99211.38;;;22.15;35.03
51249;BME280;39642;47.556;18.728;2023-01-30T14:27:48;99210.19;;;22.19;35.92
51249;BME280;39642;47.556;18.728;2023-01-30T14:38:31;99221.03;;;22.16;34.76
51249;BME280;39642;47.556;18.728;2023-01-30T14:46:05;99213.28;;;22.13;34.09
51249;BME280;39642;47.556;18.728;2023-01-30T14:48:36;99222.06;;;22.13;33.81
51249;BME280;39642;47.556;18.728;2023-01-30T14:51:30;99217.66;;;22.14;32.75
51249;BME280;39642;47.556;18.728;2023-01-30T14:59:21;99219.66;;;22.10;31.08
51249;BME280;39642;47.556;18.728;2023-01-30T15:07:10;99205.41;;;22.00;31.73
51249;BME280;39642;47.556;18.728;2023-01-30T15:09:38;99225.16;;;21.96;33.99
51249;BME280;39642;47.556;18.728;2023-01-30T15:20:11;99229.72;;;21.94;32.53
51249;BME280;39642;47.556;18.728;2023-01-30T15:25:51;99230.13;;;22.00;30.99
51249;BME280;39642;47.556;18.728;2023-01-30T15:28:32;99241.22;;;22.06;30.51
51249;BME280;39642;47.556;18.728;2023-01-30T15:33:45;99244.25;;;22.12;30.34
51249;BME280;39642;47.556;18.728;2023-01-30T15:36:22;99244.03;;;22.15;30.43
51249;BME280;39642;47.556;18.728;2023-01-30T15:41:22;99247.22;;;22.20;29.90
51249;BME280;39642;47.556;18.728;2023-01-30T15:47:08;99252.19;;;22.25;31.26